createdAt,value
2022-11-09T00:01:44.048Z,28.20
2022-11-09T00:04:11.567Z,29.10
2022-11-09T00:06:38.827Z,29.37
2022-11-09T00:09:08.343Z,29.07
2022-11-09T00:11:38.918Z,28.57
2022-11-09T00:14:06.119Z,29.40
2022-11-09T00:16:33.361Z,27.43
2022-11-09T00:19:00.277Z,29.40
2022-11-09T00:21:27.392Z,31.77
2022-11-09T00:23:54.728Z,28.90
2022-11-09T00:26:21.975Z,28.77
2022-11-09T00:28:50.110Z,30.47
2022-11-09T00:31:20.091Z,29.43
2022-11-09T00:33:51.528Z,30.63
2022-11-09T00:36:20.086Z,30.70
2022-11-09T00:38:52.153Z,30.23
2022-11-09T00:41:19.956Z,28.70
2022-11-09T00:43:48.236Z,29.43
2022-11-09T00:46:16.199Z,29.53
2022-11-09T00:48:44.330Z,27.67
2022-11-09T00:51:12.252Z,30.33
2022-11-09T00:53:40.663Z,28.60
2022-11-09T00:56:11.576Z,28.57
2022-11-09T00:58:41.003Z,27.63
2022-11-09T01:01:13.708Z,28.27
2022-11-09T01:03:43.650Z,27.83
2022-11-09T01:06:19.685Z,28.13
2022-11-09T01:08:47.620Z,28.30
2022-11-09T01:11:16.792Z,28.93
2022-11-09T01:13:44.496Z,28.20
2022-11-09T01:16:14.851Z,28.60
2022-11-09T01:18:42.076Z,27.37
2022-11-09T01:21:12.710Z,28.57
2022-11-09T01:23:40.478Z,28.37
2022-11-09T01:26:10.460Z,29.23
2022-11-09T01:28:37.412Z,26.83
2022-11-09T01:31:14.491Z,27.50
2022-11-09T01:33:41.980Z,28.00
2022-11-09T01:36:15.244Z,28.23
2022-11-09T01:38:42.391Z,25.27
2022-11-09T01:41:14.465Z,27.67
2022-11-09T01:43:41.410Z,27.40
2022-11-09T01:46:22.970Z,26.80
2022-11-09T01:48:51.890Z,25.47
2022-11-09T01:51:25.712Z,25.80
2022-11-09T01:53:59.361Z,25.23
2022-11-09T01:56:27.783Z,25.77
2022-11-09T01:59:05.963Z,25.43
2022-11-09T02:01:35.583Z,26.27
2022-11-09T02:04:32.743Z,24.00
2022-11-09T02:07:00.710Z,25.13
2022-11-09T02:09:51.935Z,23.83
2022-11-09T02:12:21.724Z,24.33
2022-11-09T02:14:52.121Z,23.60
2022-11-09T02:17:21.093Z,23.57
2022-11-09T02:19:49.822Z,24.20
2022-11-09T02:22:17.095Z,22.63
2022-11-09T02:24:43.989Z,24.63
2022-11-09T02:27:11.097Z,23.97
2022-11-09T02:29:41.767Z,23.47
2022-11-09T02:32:14.548Z,23.50
2022-11-09T02:34:41.735Z,22.33
2022-11-09T02:37:08.702Z,24.70
2022-11-09T02:39:36.085Z,23.63
2022-11-09T02:42:10.428Z,23.73
2022-11-09T02:44:44.051Z,23.20
2022-11-09T02:47:10.939Z,22.30
2022-11-09T02:49:38.133Z,23.20
2022-11-09T02:52:05.463Z,22.03
2022-11-09T02:54:32.697Z,23.13
2022-11-09T02:57:00.134Z,21.57
2022-11-09T02:59:28.382Z,23.07
2022-11-09T03:01:55.431Z,22.77
2022-11-09T03:04:22.719Z,22.37
2022-11-09T03:06:50.145Z,22.43
2022-11-09T03:09:19.390Z,22.00
2022-11-09T03:11:46.360Z,22.27
2022-11-09T03:14:16.538Z,21.23
2022-11-09T03:16:51.497Z,21.00
2022-11-09T03:19:19.694Z,20.70
2022-11-09T03:21:50.326Z,20.90
2022-11-09T03:24:21.996Z,20.93
2022-11-09T03:26:50.780Z,21.80
2022-11-09T03:29:18.053Z,21.50
2022-11-09T03:31:44.939Z,21.83
2022-11-09T03:34:12.186Z,21.03
2022-11-09T03:36:39.386Z,21.83
2022-11-09T03:39:06.661Z,22.27
2022-11-09T03:41:33.796Z,22.47
2022-11-09T03:44:01.682Z,22.17
2022-11-09T03:46:28.605Z,21.37
2022-11-09T03:48:55.767Z,22.97
2022-11-09T03:51:22.715Z,21.57
2022-11-09T03:53:49.927Z,22.77
2022-11-09T03:56:18.103Z,24.40
2022-11-09T03:58:45.318Z,20.93
2022-11-09T04:01:12.241Z,23.07
2022-11-09T04:03:39.445Z,21.83
2022-11-09T04:06:06.404Z,23.23
2022-11-09T04:08:33.505Z,22.70
2022-11-09T04:11:00.542Z,22.50
2022-11-09T04:13:27.772Z,22.43
2022-11-09T04:15:54.615Z,22.07
2022-11-09T04:18:21.732Z,21.93
2022-11-09T04:20:48.826Z,24.00
2022-11-09T04:23:16.117Z,22.60
2022-11-09T04:25:43.122Z,23.67
2022-11-09T04:28:19.071Z,23.53
2022-11-09T04:30:45.962Z,24.07
2022-11-09T04:33:13.141Z,23.23
2022-11-09T04:35:40.326Z,23.33
2022-11-09T04:38:11.207Z,23.20
2022-11-09T04:40:38.433Z,23.47
2022-11-09T04:43:07.592Z,22.60
2022-11-09T04:45:35.696Z,22.37
2022-11-09T04:48:05.739Z,23.07
2022-11-09T04:50:33.495Z,21.87
2022-11-09T04:53:12.338Z,23.13
2022-11-09T04:55:40.618Z,23.63
2022-11-09T04:58:08.601Z,22.90
2022-11-09T05:00:36.346Z,23.90
2022-11-09T05:03:04.972Z,21.30
2022-11-09T05:05:36.187Z,22.00
2022-11-09T05:08:04.460Z,21.23
2022-11-09T05:10:31.593Z,22.23
2022-11-09T05:13:00.302Z,23.70
2022-11-09T05:15:27.780Z,22.70
2022-11-09T05:17:55.305Z,23.63
2022-11-09T05:20:22.187Z,23.80
2022-11-09T05:23:07.657Z,22.37
2022-11-09T05:25:34.595Z,21.63
2022-11-09T05:28:01.782Z,22.93
2022-11-09T05:30:28.704Z,25.00
2022-11-09T05:32:55.796Z,23.00
2022-11-09T05:35:22.744Z,23.87
2022-11-09T05:37:50.401Z,22.00
2022-11-09T05:40:19.111Z,24.20
2022-11-09T05:42:46.636Z,23.87
2022-11-09T05:45:40.794Z,23.43
2022-11-09T05:48:04.701Z,24.30
2022-11-09T05:50:31.783Z,23.57
2022-11-09T05:53:12.281Z,23.40
2022-11-09T05:55:39.446Z,23.73
2022-11-09T05:58:07.023Z,24.90
2022-11-09T06:00:33.955Z,24.23
2022-11-09T06:03:06.282Z,23.70
2022-11-09T06:05:34.343Z,23.50
2022-11-09T06:08:11.593Z,26.53
2022-11-09T06:10:38.546Z,26.33
2022-11-09T06:13:05.822Z,24.00
2022-11-09T06:15:33.028Z,24.80
2022-11-09T06:18:00.299Z,24.07
2022-11-09T06:20:28.261Z,24.30
2022-11-09T06:23:03.089Z,24.73
2022-11-09T06:25:32.947Z,24.97
2022-11-09T06:28:00.921Z,25.43
2022-11-09T06:30:27.984Z,24.67
2022-11-09T06:33:01.673Z,27.30
2022-11-09T06:35:29.567Z,27.27
2022-11-09T06:37:58.537Z,26.50
2022-11-09T06:40:25.734Z,27.30
2022-11-09T06:42:53.159Z,25.60
2022-11-09T06:45:20.071Z,26.90
2022-11-09T06:47:47.263Z,26.23
2022-11-09T06:50:14.206Z,24.93
2022-11-09T06:52:41.302Z,23.70
2022-11-09T06:55:08.791Z,24.87
2022-11-09T06:57:35.915Z,23.67
2022-11-09T07:00:04.933Z,24.67
2022-11-09T07:02:32.486Z,24.97
2022-11-09T07:04:59.366Z,24.97
2022-11-09T07:07:28.146Z,24.07
2022-11-09T07:09:55.958Z,24.63
2022-11-09T07:12:23.190Z,25.10
2022-11-09T07:14:50.125Z,23.37
2022-11-09T07:17:17.307Z,23.77
2022-11-09T07:19:44.132Z,23.97
2022-11-09T07:22:11.359Z,24.33
2022-11-09T07:24:38.209Z,21.77
2022-11-09T07:27:05.666Z,20.77
2022-11-09T07:29:32.514Z,22.40
2022-11-09T07:31:59.707Z,22.37
2022-11-09T07:34:26.498Z,20.57
2022-11-09T07:36:54.586Z,22.13
2022-11-09T07:39:21.570Z,22.10
2022-11-09T07:41:49.040Z,21.80
2022-11-09T07:44:18.783Z,21.70
2022-11-09T07:46:49.983Z,20.23
2022-11-09T07:49:17.521Z,19.70
2022-11-09T07:51:44.775Z,20.83
2022-11-09T07:54:11.722Z,19.73
2022-11-09T07:56:39.006Z,18.03
2022-11-09T07:59:06.065Z,19.60
2022-11-09T08:01:33.312Z,19.63
2022-11-09T08:04:00.221Z,20.03
2022-11-09T08:06:28.259Z,21.30
2022-11-09T08:08:55.797Z,22.07
2022-11-09T08:11:23.530Z,19.60
2022-11-09T08:13:50.882Z,20.37
2022-11-09T08:16:18.123Z,22.23
2022-11-09T08:18:45.180Z,21.57
2022-11-09T08:21:12.626Z,22.23
2022-11-09T08:23:39.773Z,20.90
2022-11-09T08:26:07.405Z,20.53
2022-11-09T08:28:35.019Z,20.67
2022-11-09T08:31:04.825Z,18.57
2022-11-09T08:33:35.565Z,19.87
2022-11-09T08:36:09.075Z,20.47
2022-11-09T08:38:36.055Z,19.40
2022-11-09T08:41:03.331Z,21.00
2022-11-09T08:43:30.279Z,21.53
2022-11-09T08:45:57.436Z,19.93
2022-11-09T08:48:24.357Z,20.70
2022-11-09T08:50:53.691Z,20.40
2022-11-09T08:53:21.133Z,20.40
2022-11-09T08:55:49.609Z,20.67
2022-11-09T08:58:16.873Z,20.87
2022-11-09T09:00:44.224Z,20.70
2022-11-09T09:03:11.465Z,18.53
2022-11-09T09:05:38.704Z,19.43
2022-11-09T09:08:07.000Z,20.00
2022-11-09T09:10:38.199Z,21.03
2022-11-09T09:13:05.146Z,19.27
2022-11-09T09:15:32.415Z,19.60
2022-11-09T09:18:00.982Z,19.93
2022-11-09T09:20:28.315Z,19.93
2022-11-09T09:22:58.112Z,20.50
2022-11-09T09:25:25.854Z,19.40
2022-11-09T09:27:52.786Z,20.40
2022-11-09T09:30:20.101Z,19.53
2022-11-09T09:32:47.057Z,21.43
2022-11-09T09:35:14.361Z,20.17
2022-11-09T09:37:42.625Z,22.23
2022-11-09T09:40:23.875Z,20.67
2022-11-09T09:42:53.218Z,21.03
2022-11-09T09:45:30.554Z,19.53
2022-11-09T09:48:12.517Z,20.10
2022-11-09T09:50:50.994Z,18.90
2022-11-09T09:53:30.706Z,20.27
2022-11-09T09:56:06.534Z,18.93
2022-11-09T09:58:35.089Z,17.83
2022-11-09T10:01:12.781Z,19.10
2022-11-09T10:03:39.735Z,18.17
2022-11-09T10:06:37.719Z,17.13
2022-11-09T10:09:44.901Z,17.60
2022-11-09T10:12:41.151Z,17.35
2022-11-09T10:15:33.663Z,16.85
2022-11-09T10:18:38.359Z,17.33
2022-11-09T10:21:08.666Z,17.70
2022-11-09T10:23:53.776Z,17.70
2022-11-09T10:26:46.914Z,16.52
2022-11-09T10:29:27.239Z,16.40
2022-11-09T10:32:14.932Z,16.33
2022-11-09T10:35:11.074Z,19.50
2022-11-09T10:37:40.893Z,17.27
2022-11-09T10:40:23.877Z,17.53
2022-11-09T10:43:14.533Z,17.90
2022-11-09T10:46:07.432Z,17.53
2022-11-09T10:48:55.746Z,17.33
2022-11-09T10:51:46.752Z,17.67
2022-11-09T10:54:35.439Z,17.93
2022-11-09T10:57:23.510Z,18.03
2022-11-09T11:00:17.600Z,17.07
2022-11-09T11:03:17.720Z,17.17
2022-11-09T11:06:07.765Z,17.07
2022-11-09T11:09:16.458Z,17.93
2022-11-09T11:12:22.252Z,17.17
2022-11-09T11:15:25.892Z,17.63
2022-11-09T11:18:24.291Z,19.10
2022-11-09T11:21:19.672Z,17.17
2022-11-09T11:24:12.868Z,17.37
2022-11-09T11:27:39.588Z,18.67
2022-11-09T11:30:35.121Z,17.33
2022-11-09T11:33:22.423Z,17.60
2022-11-09T11:36:34.029Z,18.00
2022-11-09T11:39:31.497Z,18.10
2022-11-09T11:42:33.922Z,16.80
2022-11-09T11:46:03.244Z,19.53
2022-11-09T11:49:04.639Z,17.40
2022-11-09T11:52:11.721Z,18.73
2022-11-09T11:55:33.303Z,17.17
2022-11-09T12:01:42.508Z,18.20
2022-11-09T12:04:37.847Z,18.50
2022-11-09T12:07:45.829Z,17.87
2022-11-09T12:10:51.542Z,18.30
2022-11-09T12:13:55.922Z,19.47
2022-11-09T12:17:00.930Z,18.40
2022-11-09T12:20:19.104Z,20.13
2022-11-09T12:23:27.066Z,17.83
2022-11-09T12:26:23.814Z,18.53
2022-11-09T12:29:47.158Z,18.23
2022-11-09T12:32:58.463Z,17.67
2022-11-09T12:36:16.110Z,18.70
2022-11-09T12:39:26.026Z,19.13
2022-11-09T12:42:18.774Z,17.50
2022-11-09T12:45:27.465Z,17.77
2022-11-09T12:48:41.040Z,19.47
2022-11-09T12:51:46.062Z,18.57
2022-11-09T12:54:32.118Z,19.17
2022-11-09T12:57:33.963Z,19.33
2022-11-09T13:00:57.653Z,18.80
2022-11-09T13:04:15.750Z,19.77
2022-11-09T13:07:04.044Z,20.03
2022-11-09T13:09:59.254Z,20.23
2022-11-09T13:17:56.901Z,20.80
2022-11-09T13:20:57.741Z,19.60
2022-11-09T13:26:54.977Z,20.07
2022-11-09T13:29:40.162Z,19.37
2022-11-09T13:32:33.732Z,18.80
2022-11-09T13:35:41.155Z,20.53
2022-11-09T13:38:29.983Z,18.77
2022-11-09T13:41:34.684Z,19.77
2022-11-09T13:44:38.843Z,20.50
2022-11-09T13:47:37.246Z,20.50
2022-11-09T13:50:56.693Z,20.57
2022-11-09T13:54:01.141Z,19.63
2022-11-09T13:57:11.343Z,19.80
2022-11-09T13:59:59.783Z,21.13
2022-11-09T14:02:57.166Z,20.87
2022-11-09T14:05:44.537Z,21.07
2022-11-09T14:08:40.216Z,21.77
2022-11-09T14:12:06.794Z,21.77
2022-11-09T14:15:12.801Z,21.20
2022-11-09T14:18:32.529Z,22.10
2022-11-09T14:21:51.509Z,21.67
2022-11-09T14:24:38.095Z,21.77
2022-11-09T14:27:24.008Z,18.93
2022-11-09T14:30:20.562Z,22.10
2022-11-09T14:33:26.359Z,21.37
2022-11-09T14:36:13.740Z,21.03
2022-11-09T14:39:05.085Z,21.73
2022-11-09T14:41:50.929Z,22.27
2022-11-09T14:44:42.295Z,22.00
2022-11-09T14:47:33.192Z,21.87
2022-11-09T14:50:39.177Z,21.47
2022-11-09T14:53:27.653Z,24.50
2022-11-09T14:56:16.753Z,23.83
2022-11-09T14:59:05.759Z,24.03
2022-11-09T15:02:00.236Z,24.40
2022-11-09T15:05:00.765Z,24.37
2022-11-09T15:07:48.311Z,23.80
2022-11-09T15:10:35.382Z,25.77
2022-11-09T15:13:31.571Z,26.20
2022-11-09T15:16:23.915Z,27.77
2022-11-09T15:19:27.234Z,28.03
2022-11-09T15:22:37.165Z,27.60
2022-11-09T15:25:27.802Z,28.43
2022-11-09T15:28:13.653Z,26.87
2022-11-09T15:30:59.156Z,27.67
2022-11-09T15:33:52.508Z,26.90
2022-11-09T15:36:40.896Z,31.07
2022-11-09T15:39:30.833Z,28.73
2022-11-09T15:42:16.509Z,27.60
2022-11-09T15:45:02.403Z,28.63
2022-11-09T15:47:56.431Z,27.83
2022-11-09T15:50:42.481Z,27.03
2022-11-09T15:53:28.017Z,27.30
2022-11-09T15:56:23.332Z,26.70
2022-11-09T15:59:18.029Z,27.57
2022-11-09T16:02:03.865Z,26.13
2022-11-09T16:04:49.646Z,27.43
2022-11-09T16:07:35.453Z,27.60
2022-11-09T16:10:23.354Z,29.20
2022-11-09T16:13:10.407Z,26.57
2022-11-09T16:16:03.211Z,27.43
2022-11-09T16:18:49.020Z,27.60
2022-11-09T16:21:34.445Z,27.70
2022-11-09T16:24:21.117Z,28.93
2022-11-09T16:27:12.795Z,23.87
2022-11-09T16:30:15.081Z,24.83
2022-11-09T16:33:00.560Z,28.03
2022-11-09T16:35:46.404Z,26.50
2022-11-09T16:38:46.623Z,25.97
2022-11-09T16:41:32.737Z,29.07
2022-11-09T16:44:23.914Z,27.40
2022-11-09T16:47:13.331Z,27.13
2022-11-09T16:49:58.503Z,27.67
2022-11-09T16:52:44.763Z,30.70
2022-11-09T16:55:30.539Z,27.57
2022-11-09T16:58:16.046Z,27.90
2022-11-09T17:01:11.915Z,28.40
2022-11-09T17:03:58.942Z,27.90
2022-11-09T17:06:44.682Z,27.37
2022-11-09T17:09:34.671Z,26.83
2022-11-09T17:12:20.405Z,29.00
2022-11-09T17:15:07.218Z,29.07
2022-11-09T17:17:52.589Z,28.63
2022-11-09T17:20:43.675Z,31.20
2022-11-09T17:23:29.413Z,31.90
2022-11-09T17:26:15.063Z,30.63
2022-11-09T17:29:00.770Z,30.27
2022-11-09T17:31:46.281Z,30.60
2022-11-09T17:34:31.936Z,31.33
2022-11-09T17:37:17.582Z,28.97
2022-11-09T17:40:03.397Z,30.00
2022-11-09T17:42:49.493Z,32.53
2022-11-09T17:45:36.289Z,31.53
2022-11-09T17:48:22.216Z,31.43
2022-11-09T17:51:09.389Z,31.83
2022-11-09T17:53:55.141Z,31.13
2022-11-09T17:56:40.489Z,32.73
2022-11-09T17:59:26.030Z,33.77
2022-11-09T18:02:11.625Z,38.93
2022-11-09T18:04:57.087Z,34.30
2022-11-09T18:07:42.510Z,35.80
2022-11-09T18:10:28.476Z,32.13
2022-11-09T18:13:13.882Z,34.43
2022-11-09T18:16:17.457Z,33.70
2022-11-09T18:19:04.408Z,33.73
2022-11-09T18:21:50.403Z,34.77
2022-11-09T18:24:36.604Z,34.37
2022-11-09T18:27:26.083Z,34.07
2022-11-09T18:30:16.352Z,34.23
2022-11-09T18:33:01.768Z,34.57
2022-11-09T18:35:59.293Z,33.07
2022-11-09T18:38:45.283Z,31.57
2022-11-09T18:41:30.825Z,32.40
2022-11-09T18:44:17.283Z,34.20
2022-11-09T18:47:05.526Z,35.50
2022-11-09T18:49:52.700Z,33.13
2022-11-09T18:52:38.000Z,34.87
2022-11-09T18:55:23.530Z,34.03
2022-11-09T18:58:08.994Z,34.20
2022-11-09T19:00:59.973Z,33.63
2022-11-09T19:03:45.683Z,34.00
2022-11-09T19:06:32.132Z,32.37
2022-11-09T19:09:30.407Z,33.73
2022-11-09T19:12:16.528Z,32.23
2022-11-09T19:15:02.653Z,33.77
2022-11-09T19:17:48.530Z,34.53
2022-11-09T19:20:34.160Z,34.80
2022-11-09T19:23:20.422Z,34.07
2022-11-09T19:26:05.772Z,35.47
2022-11-09T19:28:51.830Z,35.17
2022-11-09T19:31:38.366Z,33.03
2022-11-09T19:34:23.794Z,33.97
2022-11-09T19:37:09.740Z,33.33
2022-11-09T19:39:55.463Z,34.53
2022-11-09T19:42:40.773Z,35.30
2022-11-09T19:45:26.495Z,35.50
2022-11-09T19:48:12.039Z,33.67
2022-11-09T19:50:57.701Z,33.67
2022-11-09T19:53:52.452Z,35.30
2022-11-09T19:56:38.454Z,34.07
2022-11-09T19:59:24.401Z,34.03
2022-11-09T20:02:10.942Z,34.53
2022-11-09T20:04:56.395Z,33.97
2022-11-09T20:07:41.981Z,37.00
2022-11-09T20:10:27.324Z,32.53
2022-11-09T20:13:12.987Z,35.50
2022-11-09T20:16:03.344Z,33.13
2022-11-09T20:18:50.179Z,33.87
2022-11-09T20:21:37.075Z,34.57
2022-11-09T20:24:22.930Z,33.43
2022-11-09T20:27:08.310Z,34.60
2022-11-09T20:29:54.417Z,32.30
2022-11-09T20:32:39.892Z,32.90
2022-11-09T20:35:25.971Z,35.23
2022-11-09T20:38:11.777Z,34.47
2022-11-09T20:40:59.444Z,33.10
2022-11-09T20:43:45.147Z,34.83
2022-11-09T20:46:35.804Z,35.60
2022-11-09T20:49:22.451Z,34.93
2022-11-09T20:52:08.552Z,34.30
2022-11-09T20:54:53.971Z,33.37
2022-11-09T20:57:39.449Z,34.90
2022-11-09T21:00:24.931Z,36.30
2022-11-09T21:03:11.072Z,35.67
2022-11-09T21:05:59.354Z,35.33
2022-11-09T21:08:46.680Z,35.10
2022-11-09T21:11:35.583Z,35.37
2022-11-09T21:14:21.709Z,36.30
2022-11-09T21:17:07.305Z,38.50
2022-11-09T21:19:53.026Z,39.10
2022-11-09T21:23:05.001Z,38.57
2022-11-09T21:26:09.293Z,35.57
2022-11-09T21:29:13.233Z,36.93
2022-11-09T21:31:59.708Z,35.67
2022-11-09T21:34:45.444Z,36.53
2022-11-09T21:37:31.032Z,38.07
2022-11-09T21:40:16.729Z,37.47
2022-11-09T21:43:02.629Z,35.47
2022-11-09T21:45:50.920Z,38.60
2022-11-09T21:48:36.737Z,34.47
2022-11-09T21:51:22.491Z,36.23
2022-11-09T21:54:09.442Z,35.83
2022-11-09T21:56:55.009Z,35.20
2022-11-09T21:59:41.224Z,37.57
2022-11-09T22:02:26.772Z,38.83
2022-11-09T22:05:12.552Z,37.53
2022-11-09T22:07:57.970Z,37.20
2022-11-09T22:10:43.351Z,37.67
2022-11-09T22:13:47.650Z,38.73
2022-11-09T22:16:34.466Z,37.93
2022-11-09T22:19:38.107Z,37.30
2022-11-09T22:22:24.902Z,35.37
2022-11-09T22:25:10.378Z,35.80
2022-11-09T22:27:55.740Z,35.77
2022-11-09T22:30:41.334Z,37.30
2022-11-09T22:33:27.685Z,34.77
2022-11-09T22:36:17.018Z,34.93
2022-11-09T22:39:03.599Z,34.80
2022-11-09T22:41:49.457Z,35.43
2022-11-09T22:44:35.266Z,37.63
2022-11-09T22:47:20.884Z,34.53
2022-11-09T22:50:06.521Z,34.13
2022-11-09T22:52:54.029Z,35.43
2022-11-09T22:55:40.112Z,36.07
2022-11-09T22:58:26.430Z,36.47
2022-11-09T23:01:18.055Z,36.20
2022-11-09T23:04:03.615Z,34.43
2022-11-09T23:06:49.714Z,35.00
2022-11-09T23:09:35.195Z,34.03
2022-11-09T23:12:20.945Z,34.60
2022-11-09T23:15:06.911Z,34.97
2022-11-09T23:18:12.777Z,34.40
2022-11-09T23:21:00.514Z,35.33
2022-11-09T23:23:46.643Z,33.83
2022-11-09T23:26:32.929Z,34.80
2022-11-09T23:29:18.590Z,35.30
2022-11-09T23:32:03.879Z,34.27
2022-11-09T23:34:49.910Z,35.63
2022-11-09T23:37:35.364Z,34.47
2022-11-09T23:40:20.827Z,34.60
2022-11-09T23:43:09.678Z,32.47
2022-11-09T23:45:57.104Z,32.47
2022-11-09T23:48:42.519Z,32.90
2022-11-09T23:51:28.347Z,31.00
2022-11-09T23:54:13.801Z,32.37
2022-11-09T23:56:59.709Z,30.83
2022-11-09T23:59:45.438Z,29.20
